Hlavní strana
METAR-TAF:

METAR-TAF

Letiště :

Mezinárodní letiště Dubaj

Dubaj, Spojené arabské emiráty

zeměpisná šířka: 25-15-10N, zeměpisná délka: 055-21-52E, výška: 8 m

Aktuální stav počasí

Zpráva byla vytvořena před 22 minutami, v 22:00 UTC
Jihojihozápadní vítr 3 kt
Teplota 21°C
Vlhkost vzduchu 73%
Tlak 1019 hPa
Viditelnost 10 km a více
Žádná oblačnost pod 1500 m, nevyskytují se cumulonimby.

METAR: OMDB 132200Z 21003KT CAVOK 21/16 Q1019 NOSIG

Čas: 02:22 (22:22 UTC)

Předpověď počasí

Zpráva byla vytvořena před 5 hodinami a 24 minutami, v 16:58 UTC
Předpověď platná od 13 v 18 UTC do 15 v 00 UTC
Východojihovýchodní vítr 5 kt
Viditelnost 10 km a více
Žádná oblačnost pod 1500 m, nevyskytují se cumulonimby.
Změna
od 14 v 09 UTC do 14 v 11 UTC
Severní vítr 10 kt
Změna
od 14 v 15 UTC do 14 v 17 UTC
Východní vítr 5 kt

TAF: OMDB 131658Z 1318/1500 11005KT CAVOK BECMG 1409/1411 35010KT BECMG 1415/1417 10005KT

Stav a předpovědi počasí z více než 4 000 letišť (zprávy METAR a TAF).

Červené a žluté tečky na mapě představují dostupné meteorologické stanice.

Když kurzor umístíte na tečku, zobrazí se název stanice.

Pak kliknutím zobrazíte stav a předpověď počasí.

Chcete-li změnit mapu, kliknutím na zelené tlačítko se znaménkem +mapu přiblížíte, kliknutím na zelené tlačítko se znaménkem – mapu oddálíte a kliknutím na zelené šipky přejdete na sousední mapy.


METAR-TAF: